sensor_id;sensor_type;location;lat;lon;timestamp;P1;durP1;ratioP1;P2;durP2;ratioP2
4244;SDS011;2136;48.502;9.194;2023-01-10T00:02:26;1.70;;;1.37;;
4244;SDS011;2136;48.502;9.194;2023-01-10T00:04:52;2.17;;;1.30;;
4244;SDS011;2136;48.502;9.194;2023-01-10T00:07:19;1.10;;;1.07;;
4244;SDS011;2136;48.502;9.194;2023-01-10T00:09:46;1.10;;;1.10;;
4244;SDS011;2136;48.502;9.194;2023-01-10T00:12:13;3.10;;;1.60;;
4244;SDS011;2136;48.502;9.194;2023-01-10T00:14:57;1.63;;;1.20;;
4244;SDS011;2136;48.502;9.194;2023-01-10T00:17:24;2.70;;;1.50;;
4244;SDS011;2136;48.502;9.194;2023-01-10T00:19:52;1.53;;;1.43;;
4244;SDS011;2136;48.502;9.194;2023-01-10T00:22:18;1.40;;;1.30;;
4244;SDS011;2136;48.502;9.194;2023-01-10T00:24:49;2.87;;;1.57;;
4244;SDS011;2136;48.502;9.194;2023-01-10T00:27:16;2.77;;;1.13;;
4244;SDS011;2136;48.502;9.194;2023-01-10T00:29:46;2.53;;;1.13;;
4244;SDS011;2136;48.502;9.194;2023-01-10T00:32:16;0.80;;;0.80;;
4244;SDS011;2136;48.502;9.194;2023-01-10T00:34:44;5.27;;;1.23;;
4244;SDS011;2136;48.502;9.194;2023-01-10T00:37:11;0.97;;;0.97;;
4244;SDS011;2136;48.502;9.194;2023-01-10T00:39:38;0.90;;;0.90;;
4244;SDS011;2136;48.502;9.194;2023-01-10T00:42:05;3.27;;;0.90;;
4244;SDS011;2136;48.502;9.194;2023-01-10T00:44:50;1.03;;;1.03;;
4244;SDS011;2136;48.502;9.194;2023-01-10T00:47:16;1.43;;;0.80;;
4244;SDS011;2136;48.502;9.194;2023-01-10T00:49:45;0.80;;;0.80;;
4244;SDS011;2136;48.502;9.194;2023-01-10T00:52:11;2.40;;;1.10;;
4244;SDS011;2136;48.502;9.194;2023-01-10T00:54:38;1.10;;;1.00;;
4244;SDS011;2136;48.502;9.194;2023-01-10T00:57:05;0.90;;;0.90;;
4244;SDS011;2136;48.502;9.194;2023-01-10T00:59:32;2.03;;;1.40;;
4244;SDS011;2136;48.502;9.194;2023-01-10T01:01:58;1.00;;;0.90;;
4244;SDS011;2136;48.502;9.194;2023-01-10T01:04:25;1.37;;;0.90;;
4244;SDS011;2136;48.502;9.194;2023-01-10T01:06:53;4.10;;;1.00;;
4244;SDS011;2136;48.502;9.194;2023-01-10T01:09:20;1.53;;;0.87;;
4244;SDS011;2136;48.502;9.194;2023-01-10T01:11:47;0.77;;;0.77;;
4244;SDS011;2136;48.502;9.194;2023-01-10T01:14:14;0.70;;;0.70;;
4244;SDS011;2136;48.502;9.194;2023-01-10T01:16:41;2.30;;;1.00;;
4244;SDS011;2136;48.502;9.194;2023-01-10T01:19:08;0.80;;;0.80;;
4244;SDS011;2136;48.502;9.194;2023-01-10T01:21:35;0.77;;;0.77;;
4244;SDS011;2136;48.502;9.194;2023-01-10T01:24:03;0.70;;;0.70;;
4244;SDS011;2136;48.502;9.194;2023-01-10T01:26:30;2.00;;;0.70;;
4244;SDS011;2136;48.502;9.194;2023-01-10T01:28:59;0.90;;;0.90;;
4244;SDS011;2136;48.502;9.194;2023-01-10T01:31:26;1.23;;;1.00;;
4244;SDS011;2136;48.502;9.194;2023-01-10T01:33:52;0.70;;;0.70;;
4244;SDS011;2136;48.502;9.194;2023-01-10T01:36:19;0.83;;;0.83;;
4244;SDS011;2136;48.502;9.194;2023-01-10T01:38:46;0.70;;;0.70;;
4244;SDS011;2136;48.502;9.194;2023-01-10T01:41:14;0.73;;;0.73;;
4244;SDS011;2136;48.502;9.194;2023-01-10T01:44:00;1.00;;;1.00;;
4244;SDS011;2136;48.502;9.194;2023-01-10T01:46:28;0.60;;;0.60;;
4244;SDS011;2136;48.502;9.194;2023-01-10T01:48:56;2.20;;;0.90;;
4244;SDS011;2136;48.502;9.194;2023-01-10T01:51:24;1.77;;;1.67;;
4244;SDS011;2136;48.502;9.194;2023-01-10T01:53:54;2.10;;;0.83;;
4244;SDS011;2136;48.502;9.194;2023-01-10T01:56:28;0.93;;;0.80;;
4244;SDS011;2136;48.502;9.194;2023-01-10T01:59:00;0.80;;;0.80;;
4244;SDS011;2136;48.502;9.194;2023-01-10T02:01:31;0.97;;;0.90;;
4244;SDS011;2136;48.502;9.194;2023-01-10T02:04:02;1.30;;;0.80;;
4244;SDS011;2136;48.502;9.194;2023-01-10T02:06:35;3.67;;;0.90;;
4244;SDS011;2136;48.502;9.194;2023-01-10T02:09:03;0.67;;;0.67;;
4244;SDS011;2136;48.502;9.194;2023-01-10T02:11:38;1.53;;;0.80;;
4244;SDS011;2136;48.502;9.194;2023-01-10T02:14:05;0.90;;;0.90;;
4244;SDS011;2136;48.502;9.194;2023-01-10T02:16:33;1.33;;;1.20;;
4244;SDS011;2136;48.502;9.194;2023-01-10T02:19:00;0.80;;;0.80;;
4244;SDS011;2136;48.502;9.194;2023-01-10T02:21:37;0.63;;;0.63;;
4244;SDS011;2136;48.502;9.194;2023-01-10T02:27:36;2.10;;;0.90;;
4244;SDS011;2136;48.502;9.194;2023-01-10T02:33:14;1.13;;;1.03;;
4244;SDS011;2136;48.502;9.194;2023-01-10T02:35:48;1.10;;;1.10;;
4244;SDS011;2136;48.502;9.194;2023-01-10T02:38:31;3.20;;;1.87;;
4244;SDS011;2136;48.502;9.194;2023-01-10T02:41:08;2.00;;;0.83;;
4244;SDS011;2136;48.502;9.194;2023-01-10T02:43:42;1.00;;;0.90;;
4244;SDS011;2136;48.502;9.194;2023-01-10T02:46:13;0.80;;;0.80;;
4244;SDS011;2136;48.502;9.194;2023-01-10T02:48:44;1.37;;;1.23;;
4244;SDS011;2136;48.502;9.194;2023-01-10T02:51:13;0.63;;;0.63;;
4244;SDS011;2136;48.502;9.194;2023-01-10T02:53:44;1.03;;;0.80;;
4244;SDS011;2136;48.502;9.194;2023-01-10T02:56:22;0.70;;;0.63;;
4244;SDS011;2136;48.502;9.194;2023-01-10T02:59:14;0.70;;;0.70;;
4244;SDS011;2136;48.502;9.194;2023-01-10T03:01:59;0.70;;;0.70;;
4244;SDS011;2136;48.502;9.194;2023-01-10T03:04:39;4.63;;;0.70;;
4244;SDS011;2136;48.502;9.194;2023-01-10T03:07:14;6.17;;;0.70;;
4244;SDS011;2136;48.502;9.194;2023-01-10T03:09:47;0.60;;;0.60;;
4244;SDS011;2136;48.502;9.194;2023-01-10T03:12:19;0.70;;;0.70;;
4244;SDS011;2136;48.502;9.194;2023-01-10T03:14:49;0.70;;;0.70;;
4244;SDS011;2136;48.502;9.194;2023-01-10T03:17:18;0.60;;;0.60;;
4244;SDS011;2136;48.502;9.194;2023-01-10T03:19:49;0.50;;;0.50;;
4244;SDS011;2136;48.502;9.194;2023-01-10T03:22:19;0.60;;;0.60;;
4244;SDS011;2136;48.502;9.194;2023-01-10T03:24:48;1.57;;;1.47;;
4244;SDS011;2136;48.502;9.194;2023-01-10T03:27:18;1.27;;;1.27;;
4244;SDS011;2136;48.502;9.194;2023-01-10T03:29:49;0.60;;;0.60;;
4244;SDS011;2136;48.502;9.194;2023-01-10T03:32:22;0.60;;;0.60;;
4244;SDS011;2136;48.502;9.194;2023-01-10T03:34:52;0.70;;;0.70;;
4244;SDS011;2136;48.502;9.194;2023-01-10T03:37:22;0.50;;;0.50;;
4244;SDS011;2136;48.502;9.194;2023-01-10T03:39:57;0.50;;;0.50;;
4244;SDS011;2136;48.502;9.194;2023-01-10T03:42:31;0.60;;;0.60;;
4244;SDS011;2136;48.502;9.194;2023-01-10T03:45:23;1.07;;;0.60;;
4244;SDS011;2136;48.502;9.194;2023-01-10T03:47:54;0.50;;;0.50;;
4244;SDS011;2136;48.502;9.194;2023-01-10T03:50:25;0.70;;;0.70;;
4244;SDS011;2136;48.502;9.194;2023-01-10T03:52:54;0.60;;;0.60;;
4244;SDS011;2136;48.502;9.194;2023-01-10T03:55:23;0.60;;;0.60;;
4244;SDS011;2136;48.502;9.194;2023-01-10T03:57:52;0.50;;;0.50;;
4244;SDS011;2136;48.502;9.194;2023-01-10T04:00:19;0.60;;;0.60;;
4244;SDS011;2136;48.502;9.194;2023-01-10T04:02:46;0.60;;;0.60;;
4244;SDS011;2136;48.502;9.194;2023-01-10T04:05:13;0.53;;;0.53;;
4244;SDS011;2136;48.502;9.194;2023-01-10T04:07:41;0.60;;;0.60;;
4244;SDS011;2136;48.502;9.194;2023-01-10T04:10:08;0.80;;;0.80;;
4244;SDS011;2136;48.502;9.194;2023-01-10T04:12:35;0.50;;;0.50;;
4244;SDS011;2136;48.502;9.194;2023-01-10T04:15:02;2.30;;;0.60;;
4244;SDS011;2136;48.502;9.194;2023-01-10T04:17:30;0.50;;;0.50;;
4244;SDS011;2136;48.502;9.194;2023-01-10T04:19:56;0.67;;;0.60;;
4244;SDS011;2136;48.502;9.194;2023-01-10T04:22:23;0.60;;;0.60;;
4244;SDS011;2136;48.502;9.194;2023-01-10T04:24:51;0.70;;;0.70;;
4244;SDS011;2136;48.502;9.194;2023-01-10T04:27:18;2.60;;;0.60;;
4244;SDS011;2136;48.502;9.194;2023-01-10T04:29:45;0.57;;;0.57;;
4244;SDS011;2136;48.502;9.194;2023-01-10T04:32:12;1.00;;;0.60;;
4244;SDS011;2136;48.502;9.194;2023-01-10T04:34:39;1.47;;;0.60;;
4244;SDS011;2136;48.502;9.194;2023-01-10T04:37:06;2.27;;;0.80;;
4244;SDS011;2136;48.502;9.194;2023-01-10T04:39:33;1.80;;;0.60;;
4244;SDS011;2136;48.502;9.194;2023-01-10T04:42:01;2.47;;;1.67;;
4244;SDS011;2136;48.502;9.194;2023-01-10T04:44:27;1.00;;;1.00;;
4244;SDS011;2136;48.502;9.194;2023-01-10T04:46:54;0.77;;;0.77;;
4244;SDS011;2136;48.502;9.194;2023-01-10T04:49:21;0.93;;;0.70;;
4244;SDS011;2136;48.502;9.194;2023-01-10T04:51:48;0.97;;;0.90;;
4244;SDS011;2136;48.502;9.194;2023-01-10T04:54:18;0.70;;;0.70;;
4244;SDS011;2136;48.502;9.194;2023-01-10T04:56:45;0.80;;;0.80;;
4244;SDS011;2136;48.502;9.194;2023-01-10T04:59:13;1.10;;;1.03;;
4244;SDS011;2136;48.502;9.194;2023-01-10T05:01:40;1.63;;;1.13;;
4244;SDS011;2136;48.502;9.194;2023-01-10T05:04:07;1.53;;;0.97;;
4244;SDS011;2136;48.502;9.194;2023-01-10T05:06:34;10.90;;;1.80;;
4244;SDS011;2136;48.502;9.194;2023-01-10T05:09:04;5.63;;;2.43;;
4244;SDS011;2136;48.502;9.194;2023-01-10T05:11:30;2.93;;;1.13;;
4244;SDS011;2136;48.502;9.194;2023-01-10T05:13:57;4.43;;;1.60;;
4244;SDS011;2136;48.502;9.194;2023-01-10T05:16:25;7.00;;;1.27;;
4244;SDS011;2136;48.502;9.194;2023-01-10T05:18:52;1.07;;;1.03;;
4244;SDS011;2136;48.502;9.194;2023-01-10T05:21:19;13.53;;;1.67;;
4244;SDS011;2136;48.502;9.194;2023-01-10T05:23:46;1.73;;;1.20;;
4244;SDS011;2136;48.502;9.194;2023-01-10T05:26:13;2.83;;;1.70;;
4244;SDS011;2136;48.502;9.194;2023-01-10T05:28:41;1.70;;;1.23;;
4244;SDS011;2136;48.502;9.194;2023-01-10T05:31:09;1.43;;;1.20;;
4244;SDS011;2136;48.502;9.194;2023-01-10T05:33:39;1.73;;;1.20;;
4244;SDS011;2136;48.502;9.194;2023-01-10T05:36:09;7.53;;;1.37;;
4244;SDS011;2136;48.502;9.194;2023-01-10T05:38:36;10.60;;;1.53;;
4244;SDS011;2136;48.502;9.194;2023-01-10T05:41:03;2.40;;;1.27;;
4244;SDS011;2136;48.502;9.194;2023-01-10T05:43:30;1.33;;;0.90;;
4244;SDS011;2136;48.502;9.194;2023-01-10T05:45:57;2.40;;;1.20;;
4244;SDS011;2136;48.502;9.194;2023-01-10T05:48:24;2.77;;;1.30;;
4244;SDS011;2136;48.502;9.194;2023-01-10T05:50:52;3.47;;;1.63;;
4244;SDS011;2136;48.502;9.194;2023-01-10T05:53:19;5.13;;;1.53;;
4244;SDS011;2136;48.502;9.194;2023-01-10T05:55:51;7.00;;;1.60;;
4244;SDS011;2136;48.502;9.194;2023-01-10T05:58:19;2.30;;;1.67;;
4244;SDS011;2136;48.502;9.194;2023-01-10T06:00:46;6.67;;;2.03;;
4244;SDS011;2136;48.502;9.194;2023-01-10T06:03:12;6.57;;;2.30;;
4244;SDS011;2136;48.502;9.194;2023-01-10T06:05:39;9.23;;;2.57;;
4244;SDS011;2136;48.502;9.194;2023-01-10T06:08:07;4.37;;;1.90;;
4244;SDS011;2136;48.502;9.194;2023-01-10T06:10:34;10.00;;;2.30;;
4244;SDS011;2136;48.502;9.194;2023-01-10T06:13:01;5.07;;;2.60;;
4244;SDS011;2136;48.502;9.194;2023-01-10T06:15:29;9.80;;;3.53;;
4244;SDS011;2136;48.502;9.194;2023-01-10T06:17:55;11.43;;;2.83;;
4244;SDS011;2136;48.502;9.194;2023-01-10T06:20:22;5.75;;;2.13;;
4244;SDS011;2136;48.502;9.194;2023-01-10T06:22:49;15.07;;;3.10;;
4244;SDS011;2136;48.502;9.194;2023-01-10T06:25:17;5.63;;;2.80;;
4244;SDS011;2136;48.502;9.194;2023-01-10T06:27:44;10.55;;;3.88;;
4244;SDS011;2136;48.502;9.194;2023-01-10T06:30:12;11.90;;;3.80;;
4244;SDS011;2136;48.502;9.194;2023-01-10T06:32:39;6.87;;;3.37;;
4244;SDS011;2136;48.502;9.194;2023-01-10T06:35:06;13.77;;;4.90;;
4244;SDS011;2136;48.502;9.194;2023-01-10T06:37:34;4.77;;;3.50;;
4244;SDS011;2136;48.502;9.194;2023-01-10T06:40:00;16.67;;;3.30;;
4244;SDS011;2136;48.502;9.194;2023-01-10T06:42:29;5.97;;;3.40;;
4244;SDS011;2136;48.502;9.194;2023-01-10T06:44:55;4.40;;;2.40;;
4244;SDS011;2136;48.502;9.194;2023-01-10T06:47:22;7.63;;;2.27;;
4244;SDS011;2136;48.502;9.194;2023-01-10T06:49:49;5.97;;;1.90;;
4244;SDS011;2136;48.502;9.194;2023-01-10T06:52:16;11.40;;;2.20;;
4244;SDS011;2136;48.502;9.194;2023-01-10T06:54:42;4.40;;;2.10;;
4244;SDS011;2136;48.502;9.194;2023-01-10T06:57:09;7.33;;;1.80;;
4244;SDS011;2136;48.502;9.194;2023-01-10T06:59:37;3.10;;;2.10;;
4244;SDS011;2136;48.502;9.194;2023-01-10T07:02:04;5.27;;;1.63;;
4244;SDS011;2136;48.502;9.194;2023-01-10T07:04:31;7.93;;;2.03;;
4244;SDS011;2136;48.502;9.194;2023-01-10T07:06:59;10.13;;;2.27;;
4244;SDS011;2136;48.502;9.194;2023-01-10T07:09:26;12.47;;;2.33;;
4244;SDS011;2136;48.502;9.194;2023-01-10T07:11:53;8.43;;;2.10;;
4244;SDS011;2136;48.502;9.194;2023-01-10T07:14:20;3.33;;;1.93;;
4244;SDS011;2136;48.502;9.194;2023-01-10T07:16:48;2.37;;;1.60;;
4244;SDS011;2136;48.502;9.194;2023-01-10T07:19:15;4.30;;;1.83;;
4244;SDS011;2136;48.502;9.194;2023-01-10T07:21:44;4.10;;;2.57;;
4244;SDS011;2136;48.502;9.194;2023-01-10T07:24:10;7.77;;;2.23;;
4244;SDS011;2136;48.502;9.194;2023-01-10T07:26:37;6.73;;;1.87;;
4244;SDS011;2136;48.502;9.194;2023-01-10T07:29:04;9.93;;;2.27;;
4244;SDS011;2136;48.502;9.194;2023-01-10T07:31:31;2.87;;;1.80;;
4244;SDS011;2136;48.502;9.194;2023-01-10T07:33:59;5.73;;;2.00;;
4244;SDS011;2136;48.502;9.194;2023-01-10T07:36:26;11.93;;;2.60;;
4244;SDS011;2136;48.502;9.194;2023-01-10T07:38:53;4.90;;;1.97;;
4244;SDS011;2136;48.502;9.194;2023-01-10T07:41:20;11.93;;;1.80;;
4244;SDS011;2136;48.502;9.194;2023-01-10T07:43:46;6.67;;;2.47;;
4244;SDS011;2136;48.502;9.194;2023-01-10T07:46:13;12.30;;;1.90;;
4244;SDS011;2136;48.502;9.194;2023-01-10T07:48:40;6.20;;;1.90;;
4244;SDS011;2136;48.502;9.194;2023-01-10T07:51:08;4.10;;;1.60;;
4244;SDS011;2136;48.502;9.194;2023-01-10T07:53:35;3.97;;;1.63;;
4244;SDS011;2136;48.502;9.194;2023-01-10T07:56:03;11.73;;;2.60;;
4244;SDS011;2136;48.502;9.194;2023-01-10T07:58:30;17.57;;;2.50;;
4244;SDS011;2136;48.502;9.194;2023-01-10T08:00:58;9.67;;;2.60;;
4244;SDS011;2136;48.502;9.194;2023-01-10T08:03:25;6.80;;;1.70;;
4244;SDS011;2136;48.502;9.194;2023-01-10T08:05:56;3.13;;;1.70;;
4244;SDS011;2136;48.502;9.194;2023-01-10T08:08:26;9.70;;;2.20;;
4244;SDS011;2136;48.502;9.194;2023-01-10T08:10:53;7.13;;;2.30;;
4244;SDS011;2136;48.502;9.194;2023-01-10T08:13:20;3.93;;;1.77;;
4244;SDS011;2136;48.502;9.194;2023-01-10T08:15:47;4.90;;;2.77;;
4244;SDS011;2136;48.502;9.194;2023-01-10T08:18:16;5.90;;;1.63;;
4244;SDS011;2136;48.502;9.194;2023-01-10T08:20:43;3.03;;;1.30;;
4244;SDS011;2136;48.502;9.194;2023-01-10T08:23:12;5.37;;;1.40;;
4244;SDS011;2136;48.502;9.194;2023-01-10T08:25:40;4.60;;;1.90;;
4244;SDS011;2136;48.502;9.194;2023-01-10T08:28:07;3.13;;;2.43;;
4244;SDS011;2136;48.502;9.194;2023-01-10T08:30:34;4.53;;;2.03;;
4244;SDS011;2136;48.502;9.194;2023-01-10T08:33:01;3.50;;;1.60;;
4244;SDS011;2136;48.502;9.194;2023-01-10T08:35:28;5.40;;;2.80;;
4244;SDS011;2136;48.502;9.194;2023-01-10T08:37:56;2.40;;;1.80;;
4244;SDS011;2136;48.502;9.194;2023-01-10T08:40:24;5.30;;;2.97;;
4244;SDS011;2136;48.502;9.194;2023-01-10T08:42:56;6.67;;;2.70;;
4244;SDS011;2136;48.502;9.194;2023-01-10T08:45:24;12.47;;;2.20;;
4244;SDS011;2136;48.502;9.194;2023-01-10T08:47:51;7.13;;;2.17;;
4244;SDS011;2136;48.502;9.194;2023-01-10T08:50:18;3.07;;;1.43;;
4244;SDS011;2136;48.502;9.194;2023-01-10T08:52:45;6.50;;;2.03;;
4244;SDS011;2136;48.502;9.194;2023-01-10T08:55:12;7.60;;;2.10;;
4244;SDS011;2136;48.502;9.194;2023-01-10T08:57:39;9.10;;;2.27;;
4244;SDS011;2136;48.502;9.194;2023-01-10T09:00:08;2.77;;;1.70;;
4244;SDS011;2136;48.502;9.194;2023-01-10T09:02:37;3.90;;;1.50;;
4244;SDS011;2136;48.502;9.194;2023-01-10T09:05:04;5.30;;;1.70;;
4244;SDS011;2136;48.502;9.194;2023-01-10T09:07:31;6.70;;;1.70;;
4244;SDS011;2136;48.502;9.194;2023-01-10T09:09:58;9.70;;;1.70;;
4244;SDS011;2136;48.502;9.194;2023-01-10T09:12:25;4.53;;;1.60;;
4244;SDS011;2136;48.502;9.194;2023-01-10T09:15:11;5.67;;;2.50;;
4244;SDS011;2136;48.502;9.194;2023-01-10T09:17:38;3.23;;;1.57;;
4244;SDS011;2136;48.502;9.194;2023-01-10T09:20:05;5.80;;;1.30;;
4244;SDS011;2136;48.502;9.194;2023-01-10T09:22:34;3.43;;;1.60;;
4244;SDS011;2136;48.502;9.194;2023-01-10T09:25:01;4.13;;;1.60;;
4244;SDS011;2136;48.502;9.194;2023-01-10T09:27:28;15.23;;;1.83;;
4244;SDS011;2136;48.502;9.194;2023-01-10T09:29:55;6.13;;;1.57;;
4244;SDS011;2136;48.502;9.194;2023-01-10T09:32:23;4.40;;;1.63;;
4244;SDS011;2136;48.502;9.194;2023-01-10T09:34:50;2.80;;;1.33;;
4244;SDS011;2136;48.502;9.194;2023-01-10T09:37:17;4.97;;;1.20;;
4244;SDS011;2136;48.502;9.194;2023-01-10T09:39:43;7.60;;;2.07;;
4244;SDS011;2136;48.502;9.194;2023-01-10T09:42:17;4.00;;;1.77;;
4244;SDS011;2136;48.502;9.194;2023-01-10T09:44:55;4.87;;;1.80;;
4244;SDS011;2136;48.502;9.194;2023-01-10T09:47:33;2.60;;;1.50;;
4244;SDS011;2136;48.502;9.194;2023-01-10T09:50:09;4.53;;;1.90;;
4244;SDS011;2136;48.502;9.194;2023-01-10T09:52:42;1.50;;;1.40;;
4244;SDS011;2136;48.502;9.194;2023-01-10T09:55:22;3.07;;;1.43;;
4244;SDS011;2136;48.502;9.194;2023-01-10T09:57:52;2.10;;;1.27;;
4244;SDS011;2136;48.502;9.194;2023-01-10T10:00:22;5.17;;;1.50;;
4244;SDS011;2136;48.502;9.194;2023-01-10T10:02:54;4.53;;;1.90;;
4244;SDS011;2136;48.502;9.194;2023-01-10T10:05:22;7.50;;;1.53;;
4244;SDS011;2136;48.502;9.194;2023-01-10T10:07:51;5.60;;;1.83;;
4244;SDS011;2136;48.502;9.194;2023-01-10T10:10:21;8.43;;;1.80;;
4244;SDS011;2136;48.502;9.194;2023-01-10T10:12:59;4.73;;;1.40;;
4244;SDS011;2136;48.502;9.194;2023-01-10T10:15:38;6.70;;;1.90;;
4244;SDS011;2136;48.502;9.194;2023-01-10T10:18:16;3.83;;;1.93;;
4244;SDS011;2136;48.502;9.194;2023-01-10T10:20:53;7.70;;;2.23;;
4244;SDS011;2136;48.502;9.194;2023-01-10T10:26:21;8.40;;;2.20;;
4244;SDS011;2136;48.502;9.194;2023-01-10T10:29:13;6.23;;;1.97;;
4244;SDS011;2136;48.502;9.194;2023-01-10T10:32:06;6.03;;;1.67;;
4244;SDS011;2136;48.502;9.194;2023-01-10T10:34:51;3.53;;;1.93;;
4244;SDS011;2136;48.502;9.194;2023-01-10T10:37:22;3.47;;;1.60;;
4244;SDS011;2136;48.502;9.194;2023-01-10T10:39:57;9.27;;;1.70;;
4244;SDS011;2136;48.502;9.194;2023-01-10T10:42:27;2.73;;;1.63;;
4244;SDS011;2136;48.502;9.194;2023-01-10T10:44:58;4.70;;;2.23;;
4244;SDS011;2136;48.502;9.194;2023-01-10T10:47:28;4.30;;;1.60;;
4244;SDS011;2136;48.502;9.194;2023-01-10T10:49:59;3.90;;;1.83;;
4244;SDS011;2136;48.502;9.194;2023-01-10T10:52:36;7.10;;;1.70;;
4244;SDS011;2136;48.502;9.194;2023-01-10T10:55:03;1.90;;;1.50;;
4244;SDS011;2136;48.502;9.194;2023-01-10T10:57:32;8.30;;;1.80;;
4244;SDS011;2136;48.502;9.194;2023-01-10T11:00:03;5.43;;;2.00;;
4244;SDS011;2136;48.502;9.194;2023-01-10T11:02:37;3.67;;;2.00;;
4244;SDS011;2136;48.502;9.194;2023-01-10T11:05:13;9.07;;;3.77;;
4244;SDS011;2136;48.502;9.194;2023-01-10T11:07:42;2.53;;;1.43;;
4244;SDS011;2136;48.502;9.194;2023-01-10T11:10:11;14.87;;;6.70;;
4244;SDS011;2136;48.502;9.194;2023-01-10T11:12:55;20.23;;;6.57;;
4244;SDS011;2136;48.502;9.194;2023-01-10T11:15:36;16.40;;;7.40;;
4244;SDS011;2136;48.502;9.194;2023-01-10T11:18:05;2.60;;;1.50;;
4244;SDS011;2136;48.502;9.194;2023-01-10T11:20:37;1.60;;;1.50;;
4244;SDS011;2136;48.502;9.194;2023-01-10T11:23:20;5.30;;;1.67;;
4244;SDS011;2136;48.502;9.194;2023-01-10T11:25:49;6.33;;;1.60;;
4244;SDS011;2136;48.502;9.194;2023-01-10T11:28:16;2.23;;;1.40;;
4244;SDS011;2136;48.502;9.194;2023-01-10T11:30:47;7.60;;;1.50;;
4244;SDS011;2136;48.502;9.194;2023-01-10T11:33:17;6.77;;;2.00;;
4244;SDS011;2136;48.502;9.194;2023-01-10T11:35:58;1.60;;;1.50;;
4244;SDS011;2136;48.502;9.194;2023-01-10T11:38:27;6.90;;;1.40;;
4244;SDS011;2136;48.502;9.194;2023-01-10T11:40:55;2.33;;;1.30;;
4244;SDS011;2136;48.502;9.194;2023-01-10T11:43:25;2.80;;;1.50;;
4244;SDS011;2136;48.502;9.194;2023-01-10T11:45:58;2.00;;;1.47;;
4244;SDS011;2136;48.502;9.194;2023-01-10T11:48:31;8.90;;;1.87;;
4244;SDS011;2136;48.502;9.194;2023-01-10T11:51:14;8.20;;;4.07;;
4244;SDS011;2136;48.502;9.194;2023-01-10T11:53:47;4.13;;;1.97;;
4244;SDS011;2136;48.502;9.194;2023-01-10T11:56:21;5.07;;;1.23;;
4244;SDS011;2136;48.502;9.194;2023-01-10T11:58:51;4.10;;;1.80;;
4244;SDS011;2136;48.502;9.194;2023-01-10T12:01:23;5.57;;;1.97;;
4244;SDS011;2136;48.502;9.194;2023-01-10T12:03:53;9.43;;;1.73;;
4244;SDS011;2136;48.502;9.194;2023-01-10T12:06:22;4.17;;;1.20;;
4244;SDS011;2136;48.502;9.194;2023-01-10T12:08:49;4.73;;;1.63;;
4244;SDS011;2136;48.502;9.194;2023-01-10T12:11:22;3.50;;;1.30;;
4244;SDS011;2136;48.502;9.194;2023-01-10T12:13:52;5.27;;;1.43;;
4244;SDS011;2136;48.502;9.194;2023-01-10T12:16:21;9.30;;;2.30;;
4244;SDS011;2136;48.502;9.194;2023-01-10T12:18:50;3.33;;;2.70;;
4244;SDS011;2136;48.502;9.194;2023-01-10T12:21:20;3.50;;;1.67;;
4244;SDS011;2136;48.502;9.194;2023-01-10T12:23:52;4.40;;;1.50;;
4244;SDS011;2136;48.502;9.194;2023-01-10T12:26:22;3.33;;;1.03;;
4244;SDS011;2136;48.502;9.194;2023-01-10T12:28:52;2.30;;;1.50;;
4244;SDS011;2136;48.502;9.194;2023-01-10T12:31:21;4.67;;;1.97;;
4244;SDS011;2136;48.502;9.194;2023-01-10T12:33:50;2.80;;;1.23;;
4244;SDS011;2136;48.502;9.194;2023-01-10T12:36:32;7.13;;;1.20;;
4244;SDS011;2136;48.502;9.194;2023-01-10T12:39:09;3.20;;;1.43;;
4244;SDS011;2136;48.502;9.194;2023-01-10T12:41:52;7.27;;;1.70;;
4244;SDS011;2136;48.502;9.194;2023-01-10T12:44:45;3.90;;;1.57;;
4244;SDS011;2136;48.502;9.194;2023-01-10T12:47:19;3.10;;;1.40;;
4244;SDS011;2136;48.502;9.194;2023-01-10T12:49:54;3.00;;;1.20;;
4244;SDS011;2136;48.502;9.194;2023-01-10T12:52:30;1.17;;;1.07;;
4244;SDS011;2136;48.502;9.194;2023-01-10T12:55:05;4.80;;;1.57;;
4244;SDS011;2136;48.502;9.194;2023-01-10T12:57:34;2.30;;;1.77;;
4244;SDS011;2136;48.502;9.194;2023-01-10T13:00:04;4.07;;;1.90;;
4244;SDS011;2136;48.502;9.194;2023-01-10T13:02:39;2.43;;;1.77;;
4244;SDS011;2136;48.502;9.194;2023-01-10T13:05:12;2.20;;;1.40;;
4244;SDS011;2136;48.502;9.194;2023-01-10T13:07:44;4.40;;;1.53;;
4244;SDS011;2136;48.502;9.194;2023-01-10T13:10:14;6.17;;;1.60;;
4244;SDS011;2136;48.502;9.194;2023-01-10T13:12:43;1.60;;;1.33;;
4244;SDS011;2136;48.502;9.194;2023-01-10T13:15:16;7.30;;;1.87;;
4244;SDS011;2136;48.502;9.194;2023-01-10T13:17:48;9.80;;;1.30;;
4244;SDS011;2136;48.502;9.194;2023-01-10T13:20:38;4.77;;;1.23;;
4244;SDS011;2136;48.502;9.194;2023-01-10T13:26:03;1.10;;;1.00;;
4244;SDS011;2136;48.502;9.194;2023-01-10T13:28:33;6.03;;;1.47;;
4244;SDS011;2136;48.502;9.194;2023-01-10T13:31:03;3.77;;;1.20;;
4244;SDS011;2136;48.502;9.194;2023-01-10T13:33:32;1.47;;;0.97;;
4244;SDS011;2136;48.502;9.194;2023-01-10T13:36:11;7.30;;;1.80;;
4244;SDS011;2136;48.502;9.194;2023-01-10T13:38:48;3.70;;;1.63;;
4244;SDS011;2136;48.502;9.194;2023-01-10T13:41:17;4.30;;;1.37;;
4244;SDS011;2136;48.502;9.194;2023-01-10T13:44:07;3.50;;;1.40;;
4244;SDS011;2136;48.502;9.194;2023-01-10T13:55:22;1.60;;;1.27;;
4244;SDS011;2136;48.502;9.194;2023-01-10T13:57:59;3.47;;;1.43;;
4244;SDS011;2136;48.502;9.194;2023-01-10T14:00:41;3.23;;;1.40;;
4244;SDS011;2136;48.502;9.194;2023-01-10T14:03:36;2.30;;;1.33;;
4244;SDS011;2136;48.502;9.194;2023-01-10T14:06:31;2.27;;;1.27;;
4244;SDS011;2136;48.502;9.194;2023-01-10T14:09:05;6.60;;;1.30;;
4244;SDS011;2136;48.502;9.194;2023-01-10T14:11:53;6.00;;;2.30;;
4244;SDS011;2136;48.502;9.194;2023-01-10T14:14:24;5.30;;;1.33;;
4244;SDS011;2136;48.502;9.194;2023-01-10T14:16:53;3.83;;;1.33;;
4244;SDS011;2136;48.502;9.194;2023-01-10T14:19:22;1.07;;;0.97;;
4244;SDS011;2136;48.502;9.194;2023-01-10T14:21:53;4.50;;;1.50;;
4244;SDS011;2136;48.502;9.194;2023-01-10T14:24:22;2.17;;;1.30;;
4244;SDS011;2136;48.502;9.194;2023-01-10T14:26:52;11.53;;;1.37;;
4244;SDS011;2136;48.502;9.194;2023-01-10T14:29:20;4.37;;;1.47;;
4244;SDS011;2136;48.502;9.194;2023-01-10T14:31:48;3.10;;;1.30;;
4244;SDS011;2136;48.502;9.194;2023-01-10T14:34:19;5.10;;;1.40;;
4244;SDS011;2136;48.502;9.194;2023-01-10T14:36:49;2.17;;;1.23;;
4244;SDS011;2136;48.502;9.194;2023-01-10T14:39:20;6.93;;;1.63;;
4244;SDS011;2136;48.502;9.194;2023-01-10T14:41:48;4.40;;;1.60;;
4244;SDS011;2136;48.502;9.194;2023-01-10T14:44:20;2.37;;;1.27;;
4244;SDS011;2136;48.502;9.194;2023-01-10T14:46:52;4.10;;;1.30;;
4244;SDS011;2136;48.502;9.194;2023-01-10T14:49:22;4.47;;;1.20;;
4244;SDS011;2136;48.502;9.194;2023-01-10T14:51:50;8.73;;;2.40;;
4244;SDS011;2136;48.502;9.194;2023-01-10T14:54:20;7.90;;;2.80;;
4244;SDS011;2136;48.502;9.194;2023-01-10T14:56:48;6.80;;;1.33;;
4244;SDS011;2136;48.502;9.194;2023-01-10T14:59:16;5.40;;;2.17;;
4244;SDS011;2136;48.502;9.194;2023-01-10T15:01:49;3.67;;;1.30;;
4244;SDS011;2136;48.502;9.194;2023-01-10T15:04:18;2.10;;;1.73;;
4244;SDS011;2136;48.502;9.194;2023-01-10T15:06:52;2.57;;;1.87;;
4244;SDS011;2136;48.502;9.194;2023-01-10T15:09:20;3.50;;;1.40;;
4244;SDS011;2136;48.502;9.194;2023-01-10T15:11:47;2.80;;;1.40;;
4244;SDS011;2136;48.502;9.194;2023-01-10T15:14:16;4.40;;;1.03;;
4244;SDS011;2136;48.502;9.194;2023-01-10T15:16:48;6.23;;;1.43;;
4244;SDS011;2136;48.502;9.194;2023-01-10T15:19:18;2.90;;;1.10;;
4244;SDS011;2136;48.502;9.194;2023-01-10T15:21:46;3.30;;;1.50;;
4244;SDS011;2136;48.502;9.194;2023-01-10T15:24:26;7.10;;;2.07;;
4244;SDS011;2136;48.502;9.194;2023-01-10T15:26:56;3.53;;;1.20;;
4244;SDS011;2136;48.502;9.194;2023-01-10T15:29:25;4.20;;;1.43;;
4244;SDS011;2136;48.502;9.194;2023-01-10T15:31:54;4.73;;;1.80;;
4244;SDS011;2136;48.502;9.194;2023-01-10T15:34:31;5.80;;;1.77;;
4244;SDS011;2136;48.502;9.194;2023-01-10T15:36:58;2.60;;;1.30;;
4244;SDS011;2136;48.502;9.194;2023-01-10T15:39:27;6.30;;;1.60;;
4244;SDS011;2136;48.502;9.194;2023-01-10T15:41:56;3.43;;;2.40;;
4244;SDS011;2136;48.502;9.194;2023-01-10T15:44:31;35.80;;;11.70;;
4244;SDS011;2136;48.502;9.194;2023-01-10T15:47:02;20.73;;;4.53;;
4244;SDS011;2136;48.502;9.194;2023-01-10T15:49:30;54.70;;;16.07;;
4244;SDS011;2136;48.502;9.194;2023-01-10T15:51:56;57.53;;;18.13;;
4244;SDS011;2136;48.502;9.194;2023-01-10T15:54:27;97.93;;;27.07;;
4244;SDS011;2136;48.502;9.194;2023-01-10T15:56:57;72.13;;;24.33;;